Time;durP1;ratioP1;P1;durP2;ratioP2;P2;SDS_P1;SDS_P2;PMS_P1;PMS_P2;Temp;Humidity;BMP_temperature;BMP_pressure;BME280_temperature;BME280_humidity;BME280_pressure;Samples;Min_cycle;Max_cycle;Signal;HPM_P1;HPM_P2
2022/03/09 00:00:13;;;;;;;21.17;11.15;;;0.60;94.60;;;;;;5052059;28;20057;-77
2022/03/09 00:02:39;;;;;;;17.25;9.88;;;0.60;94.80;;;;;;5030728;28;20101;-77
2022/03/09 00:05:05;;;;;;;14.82;10.73;;;0.60;95.00;;;;;;5030118;28;20025;-77
2022/03/09 00:07:31;;;;;;;17.33;10.73;;;0.70;94.50;;;;;;5033287;28;20028;-75
2022/03/09 00:09:56;;;;;;;13.77;9.57;;;0.70;94.40;;;;;;5033637;28;20359;-75
2022/03/09 00:12:22;;;;;;;15.07;10.35;;;0.70;94.60;;;;;;5026511;28;20040;-76
2022/03/09 00:14:48;;;;;;;14.70;8.82;;;0.50;94.90;;;;;;5032105;28;20381;-76
2022/03/09 00:17:14;;;;;;;17.25;9.50;;;0.50;95.50;;;;;;5033834;28;20047;-76
2022/03/09 00:19:39;;;;;;;21.77;11.20;;;0.50;95.40;;;;;;5039784;28;20044;-77
2022/03/09 00:22:05;;;;;;;22.42;11.40;;;0.50;95.60;;;;;;5033628;28;20371;-76
2022/03/09 00:24:32;;;;;;;19.77;12.45;;;0.50;96.10;;;;;;5031897;28;20017;-75
2022/03/09 00:26:59;;;;;;;18.77;11.35;;;0.50;96.00;;;;;;5019456;28;20112;-75
2022/03/09 00:29:25;;;;;;;23.05;11.45;;;0.50;96.00;;;;;;5032462;28;20025;-75
2022/03/09 00:31:51;;;;;;;22.17;11.57;;;0.40;96.10;;;;;;5023833;28;20366;-75
2022/03/09 00:34:17;;;;;;;14.40;11.43;;;0.20;96.50;;;;;;5031240;28;20436;-76
2022/03/09 00:36:43;;;;;;;20.98;11.35;;;0.20;97.20;;;;;;5032433;28;20014;-75
2022/03/09 00:39:09;;;;;;;17.23;11.35;;;0.30;97.60;;;;;;5032877;28;20060;-75
2022/03/09 00:41:35;;;;;;;16.55;11.07;;;0.40;97.30;;;;;;5047739;28;20021;-76
2022/03/09 00:44:00;;;;;;;17.10;11.80;;;0.30;97.30;;;;;;5031044;28;20083;-76
2022/03/09 00:46:26;;;;;;;20.02;10.75;;;0.30;97.60;;;;;;5044747;28;20030;-74
2022/03/09 00:48:51;;;;;;;19.38;11.57;;;0.20;97.60;;;;;;5031777;28;20029;-75
2022/03/09 00:51:17;;;;;;;21.83;10.57;;;0.20;97.90;;;;;;5030394;28;20060;-75
2022/03/09 00:53:42;;;;;;;21.58;10.45;;;0.10;98.10;;;;;;5023399;28;20058;-76
2022/03/09 00:56:08;;;;;;;17.48;11.13;;;0.10;98.40;;;;;;5028794;28;20029;-75
2022/03/09 00:58:33;;;;;;;14.63;9.85;;;0.10;98.40;;;;;;5046590;28;20079;-77
2022/03/09 01:00:59;;;;;;;13.48;8.85;;;0.20;98.30;;;;;;5038842;28;20033;-75
2022/03/09 01:03:24;;;;;;;18.58;10.40;;;0.10;98.50;;;;;;5031549;28;20040;-76
2022/03/09 01:05:50;;;;;;;21.33;10.48;;;0.10;98.60;;;;;;5026329;28;20025;-77
2022/03/09 01:08:15;;;;;;;18.15;10.95;;;0.20;98.50;;;;;;5027166;28;20026;-76
2022/03/09 01:10:41;;;;;;;21.05;12.38;;;0.20;98.70;;;;;;5031020;28;20028;-76
2022/03/09 01:13:07;;;;;;;24.38;14.20;;;0.20;98.80;;;;;;5031205;28;20032;-76
2022/03/09 01:15:33;;;;;;;21.55;11.82;;;0.20;98.70;;;;;;5031059;28;20060;-74
2022/03/09 01:17:58;;;;;;;19.13;11.60;;;0.20;98.80;;;;;;5022921;28;20489;-75
2022/03/09 01:20:24;;;;;;;18.08;11.18;;;0.00;99.10;;;;;;5026675;28;20042;-75
2022/03/09 01:22:49;;;;;;;19.33;10.38;;;-0.10;99.80;;;;;;5032402;28;20103;-77
2022/03/09 01:25:15;;;;;;;19.70;12.02;;;0.00;99.80;;;;;;5046146;28;20025;-76
2022/03/09 01:27:41;;;;;;;17.85;12.30;;;0.00;99.80;;;;;;5028059;28;20018;-76
2022/03/09 01:30:09;;;;;;;18.00;11.75;;;0.00;99.70;;;;;;5023559;28;20029;-85
2022/03/09 01:32:34;;;;;;;18.15;11.40;;;0.10;99.90;;;;;;5024928;28;20034;-77
2022/03/09 01:35:00;;;;;;;20.23;12.13;;;0.10;99.90;;;;;;5032965;28;20132;-81
2022/03/09 01:37:26;;;;;;;19.13;12.18;;;0.00;99.90;;;;;;5055034;28;20018;-81
2022/03/09 01:39:52;;;;;;;17.67;10.85;;;-0.10;99.90;;;;;;5055962;28;20387;-80
2022/03/09 01:42:17;;;;;;;17.80;11.07;;;-0.10;99.90;;;;;;5049154;28;20032;-79
2022/03/09 01:44:43;;;;;;;18.70;10.82;;;0.00;99.90;;;;;;5032704;28;20120;-80
2022/03/09 01:47:09;;;;;;;17.60;10.80;;;-0.10;99.90;;;;;;5036267;28;20038;-81
2022/03/09 01:49:36;;;;;;;19.70;11.85;;;-0.10;99.90;;;;;;5040833;28;20036;-82
2022/03/09 01:52:02;;;;;;;18.65;11.10;;;-0.20;99.90;;;;;;5040784;28;20025;-82
2022/03/09 01:54:29;;;;;;;20.35;12.52;;;-0.20;99.90;;;;;;5045959;28;20017;-84
2022/03/09 01:56:55;;;;;;;16.45;10.88;;;-0.20;99.90;;;;;;5039650;28;20119;-84
2022/03/09 01:59:20;;;;;;;17.98;11.77;;;-0.20;99.90;;;;;;5039349;28;20026;-84
2022/03/09 02:01:47;;;;;;;22.45;11.77;;;-0.20;99.90;;;;;;5046934;28;20025;-83
2022/03/09 02:04:13;;;;;;;21.55;11.60;;;-0.20;99.90;;;;;;5038725;28;20026;-83
2022/03/09 02:06:39;;;;;;;19.63;11.45;;;-0.30;99.90;;;;;;5027042;28;20022;-83
2022/03/09 02:11:52;;;;;;;19.45;12.48;;;-0.20;99.90;;;;;;5038026;28;20104;-82
2022/03/09 02:14:28;;;;;;;18.90;11.32;;;-0.20;99.90;;;;;;5038255;28;20034;-82
2022/03/09 02:16:55;;;;;;;18.60;12.00;;;-0.20;99.90;;;;;;5054275;28;20509;-81
2022/03/09 02:19:21;;;;;;;14.68;10.75;;;-0.10;99.90;;;;;;5047702;28;20029;-81
2022/03/09 02:21:48;;;;;;;17.70;11.05;;;-0.20;99.90;;;;;;5037683;28;20029;-81
2022/03/09 02:24:14;;;;;;;18.58;12.55;;;-0.20;99.90;;;;;;5038307;28;20026;-86
2022/03/09 02:26:40;;;;;;;17.63;12.35;;;-0.20;99.90;;;;;;5055641;28;20040;-79
2022/03/09 02:29:06;;;;;;;15.57;10.40;;;-0.20;99.90;;;;;;5039340;28;20079;-80
2022/03/09 02:31:31;;;;;;;22.38;11.68;;;-0.30;99.90;;;;;;5037032;28;20022;-81
2022/03/09 02:33:57;;;;;;;23.08;9.82;;;-0.40;99.90;;;;;;5056956;28;20210;-79
2022/03/09 02:36:22;;;;;;;14.98;10.18;;;-0.40;99.90;;;;;;5042175;28;20025;-81
2022/03/09 02:38:48;;;;;;;20.02;10.13;;;-0.50;99.90;;;;;;5033223;28;20057;-80
2022/03/09 02:41:13;;;;;;;19.73;12.13;;;-0.40;99.90;;;;;;5037865;28;20017;-79
2022/03/09 02:43:39;;;;;;;18.58;10.65;;;-0.50;99.90;;;;;;5036379;28;20498;-79
2022/03/09 02:46:05;;;;;;;18.27;10.25;;;-0.40;99.90;;;;;;5039555;28;20030;-80
2022/03/09 02:48:30;;;;;;;21.48;11.63;;;-0.40;99.90;;;;;;5046046;28;20022;-80
2022/03/09 02:50:56;;;;;;;23.30;12.82;;;-0.40;99.90;;;;;;5039618;28;20037;-80
2022/03/09 02:53:21;;;;;;;20.25;11.30;;;-0.50;99.90;;;;;;5055603;28;20036;-78
2022/03/09 02:55:47;;;;;;;18.50;10.32;;;-0.60;99.90;;;;;;5055391;28;20434;-80
2022/03/09 02:58:12;;;;;;;18.70;11.07;;;-0.40;99.90;;;;;;5040666;28;20037;-81
2022/03/09 03:00:38;;;;;;;24.92;11.52;;;-0.20;99.90;;;;;;5038332;28;20100;-80
2022/03/09 03:03:03;;;;;;;21.63;11.63;;;-0.30;99.90;;;;;;5039625;28;20029;-79
2022/03/09 03:05:30;;;;;;;18.83;12.07;;;-0.40;99.90;;;;;;5038652;28;20022;-79
2022/03/09 03:07:56;;;;;;;18.02;11.75;;;-0.50;99.90;;;;;;5037997;28;20061;-79
2022/03/09 03:10:21;;;;;;;18.27;11.38;;;-0.50;99.90;;;;;;5039057;28;20087;-79
2022/03/09 03:12:47;;;;;;;20.05;11.75;;;-0.40;99.90;;;;;;5040286;28;20045;-80
2022/03/09 03:15:12;;;;;;;17.77;11.38;;;-0.50;99.90;;;;;;5039341;28;20036;-79
2022/03/09 03:17:38;;;;;;;21.55;11.93;;;-0.60;99.90;;;;;;5037622;28;20021;-79
2022/03/09 03:20:05;;;;;;;20.05;12.75;;;-0.60;99.90;;;;;;5037020;28;20393;-79
2022/03/09 03:22:31;;;;;;;24.02;12.25;;;-0.60;99.90;;;;;;5031170;28;20033;-79
2022/03/09 03:24:56;;;;;;;18.23;12.05;;;-0.60;99.90;;;;;;5038896;28;20176;-80
2022/03/09 03:27:22;;;;;;;17.65;10.57;;;-0.70;99.90;;;;;;5033984;28;20025;-79
2022/03/09 03:29:47;;;;;;;21.95;11.10;;;-0.60;99.90;;;;;;5038982;28;20109;-80
2022/03/09 03:32:13;;;;;;;16.95;11.43;;;-0.60;99.90;;;;;;5036295;28;20049;-79
2022/03/09 03:34:39;;;;;;;16.00;11.27;;;-0.60;99.90;;;;;;5032898;28;20014;-80
2022/03/09 03:37:05;;;;;;;21.00;11.90;;;-0.60;99.90;;;;;;5036159;28;20025;-79
2022/03/09 03:39:30;;;;;;;14.43;11.35;;;-0.70;99.90;;;;;;5051009;28;20022;-79
2022/03/09 03:41:56;;;;;;;48.63;16.77;;;-0.60;99.90;;;;;;5051054;28;20030;-80
2022/03/09 03:44:21;;;;;;;18.48;12.77;;;-0.70;99.90;;;;;;5053872;28;20439;-79
2022/03/09 03:46:47;;;;;;;22.55;14.73;;;-0.80;99.90;;;;;;5037418;28;20025;-80
2022/03/09 03:49:12;;;;;;;19.63;13.73;;;-0.80;99.90;;;;;;5037005;28;20029;-79
2022/03/09 03:51:38;;;;;;;18.30;13.20;;;-0.90;99.90;;;;;;5031349;28;20025;-79
2022/03/09 03:54:03;;;;;;;17.33;12.85;;;-0.90;99.90;;;;;;5038096;28;20053;-79
2022/03/09 03:56:29;;;;;;;17.73;11.18;;;-0.90;99.90;;;;;;5027036;28;20022;-80
2022/03/09 03:58:55;;;;;;;19.02;10.65;;;-0.90;99.90;;;;;;5036871;28;20064;-80
2022/03/09 04:01:20;;;;;;;17.17;10.57;;;-0.70;99.90;;;;;;5035755;28;20056;-79
2022/03/09 04:03:46;;;;;;;15.75;11.18;;;-0.40;99.90;;;;;;5039107;28;20052;-78
2022/03/09 04:06:12;;;;;;;20.92;11.57;;;-0.50;99.90;;;;;;5044260;28;20033;-78
2022/03/09 04:08:37;;;;;;;15.07;11.15;;;-0.70;99.90;;;;;;5050798;28;20030;-79
2022/03/09 04:11:03;;;;;;;20.83;11.50;;;-0.90;99.90;;;;;;5036318;28;20040;-79
2022/03/09 04:13:28;;;;;;;16.92;11.25;;;-0.90;99.90;;;;;;5036669;28;20453;-79
2022/03/09 04:15:54;;;;;;;15.57;11.27;;;-0.90;99.90;;;;;;5036296;28;20032;-79
2022/03/09 04:18:19;;;;;;;20.52;11.23;;;-0.90;99.90;;;;;;5026779;28;20037;-78
2022/03/09 04:20:45;;;;;;;18.90;12.43;;;-1.00;99.90;;;;;;5030626;28;20165;-78
2022/03/09 04:23:10;;;;;;;18.40;11.25;;;-1.00;99.90;;;;;;5032615;28;20054;-78
2022/03/09 04:25:37;;;;;;;19.88;11.77;;;-1.00;99.90;;;;;;5049224;28;20025;-79
2022/03/09 04:28:03;;;;;;;17.02;11.48;;;-1.00;99.90;;;;;;5028511;28;20036;-79
2022/03/09 04:30:28;;;;;;;18.75;11.82;;;-1.00;99.90;;;;;;5036573;28;20025;-79
2022/03/09 04:32:54;;;;;;;21.45;12.18;;;-0.80;99.90;;;;;;5035658;28;20032;-79
2022/03/09 04:35:19;;;;;;;22.23;12.82;;;-0.90;99.90;;;;;;5036882;28;20025;-79
2022/03/09 04:37:45;;;;;;;21.27;11.70;;;-0.90;99.90;;;;;;5038076;28;20056;-78
2022/03/09 04:40:11;;;;;;;22.15;14.02;;;-0.90;99.90;;;;;;5028549;28;20489;-79
2022/03/09 04:42:37;;;;;;;21.70;13.43;;;-1.00;99.90;;;;;;5051337;28;20033;-79
2022/03/09 04:45:03;;;;;;;16.52;11.13;;;-1.10;99.90;;;;;;5039348;28;20036;-79
2022/03/09 04:47:29;;;;;;;17.73;11.52;;;-1.10;99.90;;;;;;5038444;28;20057;-80
2022/03/09 04:49:54;;;;;;;23.55;11.18;;;-1.10;99.90;;;;;;5036689;28;20424;-81
2022/03/09 04:52:20;;;;;;;20.55;12.40;;;-1.10;99.90;;;;;;5045180;28;20034;-80
2022/03/09 04:54:46;;;;;;;22.00;12.18;;;-1.10;99.90;;;;;;5043087;28;20033;-79
2022/03/09 04:57:12;;;;;;;20.25;11.85;;;-1.10;99.90;;;;;;5047590;28;20112;-78
2022/03/09 04:59:38;;;;;;;19.92;12.30;;;-1.10;99.90;;;;;;5033230;28;20045;-79
2022/03/09 05:02:04;;;;;;;22.17;13.27;;;-1.20;99.90;;;;;;5031503;28;20080;-80
2022/03/09 05:04:29;;;;;;;18.15;11.75;;;-1.20;99.90;;;;;;5070820;28;20021;-79
2022/03/09 05:06:55;;;;;;;22.48;14.10;;;-1.30;99.90;;;;;;5056894;28;20035;-79
2022/03/09 05:09:21;;;;;;;19.45;12.40;;;-1.40;99.90;;;;;;5072849;28;20035;-79
2022/03/09 05:11:46;;;;;;;23.27;12.63;;;-1.30;99.90;;;;;;5068954;28;20016;-80
2022/03/09 05:14:12;;;;;;;17.20;11.38;;;-1.30;99.90;;;;;;5066052;28;20025;-80
2022/03/09 05:16:37;;;;;;;17.48;11.77;;;-1.20;99.90;;;;;;5056638;28;20022;-80
2022/03/09 05:19:03;;;;;;;20.42;12.68;;;-1.20;99.90;;;;;;5056735;28;20052;-77
2022/03/09 05:21:28;;;;;;;18.30;11.23;;;-1.20;99.90;;;;;;5056653;28;20018;-79
2022/03/09 05:23:54;;;;;;;18.55;11.55;;;-1.10;99.90;;;;;;5069513;28;20021;-79
2022/03/09 05:26:19;;;;;;;15.93;11.10;;;-1.20;99.90;;;;;;5047057;28;20049;-79
2022/03/09 05:28:45;;;;;;;17.17;10.95;;;-1.20;99.90;;;;;;5052274;28;20041;-79
2022/03/09 05:31:11;;;;;;;14.98;10.73;;;-1.10;99.90;;;;;;5034616;28;20033;-80
2022/03/09 05:33:36;;;;;;;17.05;10.85;;;-1.10;99.90;;;;;;5035725;28;20040;-80
2022/03/09 05:36:02;;;;;;;23.75;11.13;;;-1.10;99.90;;;;;;5045943;28;20038;-79
2022/03/09 05:38:27;;;;;;;16.20;10.40;;;-0.90;99.90;;;;;;5047966;28;20052;-78
2022/03/09 05:40:53;;;;;;;26.13;11.77;;;-0.90;99.90;;;;;;5063290;28;20017;-78
2022/03/09 05:43:19;;;;;;;21.17;11.63;;;-0.90;99.90;;;;;;5056683;28;20025;-80
2022/03/09 05:45:44;;;;;;;16.33;10.77;;;-0.80;99.90;;;;;;5056206;28;20029;-80
2022/03/09 05:48:10;;;;;;;19.55;12.85;;;-0.80;99.90;;;;;;5070681;28;20044;-80
2022/03/09 05:50:36;;;;;;;16.95;11.50;;;-0.70;99.90;;;;;;5065394;28;20025;-79
2022/03/09 05:53:02;;;;;;;18.70;11.23;;;-0.80;99.90;;;;;;5057042;28;20079;-79
2022/03/09 05:55:27;;;;;;;17.65;10.57;;;-1.00;99.90;;;;;;5035581;28;20042;-79
2022/03/09 05:57:53;;;;;;;18.25;10.23;;;-1.10;99.90;;;;;;5028263;28;20022;-79
2022/03/09 06:00:18;;;;;;;21.80;11.75;;;-1.10;99.90;;;;;;5035026;28;20022;-79
2022/03/09 06:02:44;;;;;;;18.70;11.45;;;-1.10;99.90;;;;;;5035937;28;20104;-79
2022/03/09 06:05:09;;;;;;;16.98;11.98;;;-0.90;99.90;;;;;;5051542;28;20443;-80
2022/03/09 06:07:35;;;;;;;17.45;10.23;;;-0.90;99.90;;;;;;5050869;28;20029;-79
2022/03/09 06:10:01;;;;;;;16.40;11.63;;;-0.80;99.90;;;;;;5049350;28;20033;-80
2022/03/09 06:12:27;;;;;;;19.45;11.63;;;-0.70;99.90;;;;;;5033928;28;20017;-79
2022/03/09 06:14:52;;;;;;;20.02;11.43;;;-0.60;99.90;;;;;;5029518;28;20045;-80
2022/03/09 06:17:18;;;;;;;18.38;10.60;;;-0.60;99.90;;;;;;5033728;28;20040;-80
2022/03/09 06:19:43;;;;;;;18.50;10.88;;;-0.60;99.90;;;;;;5034419;28;20028;-79
2022/03/09 06:22:09;;;;;;;15.23;9.93;;;-0.70;99.90;;;;;;5034687;28;20127;-80
2022/03/09 06:24:34;;;;;;;19.77;10.50;;;-0.70;99.90;;;;;;5040402;28;20028;-79
2022/03/09 06:27:00;;;;;;;19.98;10.90;;;-0.70;99.90;;;;;;5037229;28;20056;-79
2022/03/09 06:29:26;;;;;;;14.05;10.60;;;-0.70;99.90;;;;;;5037077;28;20026;-80
2022/03/09 06:31:52;;;;;;;16.70;10.32;;;-0.60;99.90;;;;;;5052705;28;20021;-79
2022/03/09 06:34:17;;;;;;;21.33;10.25;;;-0.50;99.90;;;;;;5036982;28;20227;-79
2022/03/09 06:36:44;;;;;;;16.45;10.00;;;-0.40;99.90;;;;;;5039674;28;20032;-77
2022/03/09 06:39:12;;;;;;;16.90;10.23;;;-0.30;99.90;;;;;;5036101;28;20056;-80
2022/03/09 06:41:40;;;;;;;15.88;10.00;;;-0.20;99.90;;;;;;5037572;28;20033;-82
2022/03/09 06:44:05;;;;;;;14.57;10.07;;;-0.10;99.90;;;;;;5050933;28;20040;-77
2022/03/09 06:46:31;;;;;;;20.35;11.30;;;-0.20;99.90;;;;;;5063532;28;20053;-78
2022/03/09 06:48:56;;;;;;;23.85;11.52;;;-0.20;99.90;;;;;;5045623;28;20040;-78
2022/03/09 06:51:22;;;;;;;20.58;11.07;;;0.00;99.90;;;;;;5055720;28;20026;-78
2022/03/09 06:53:47;;;;;;;16.45;11.57;;;0.10;99.90;;;;;;5041942;28;20397;-80
2022/03/09 06:56:13;;;;;;;20.02;11.32;;;0.30;99.90;;;;;;5037041;28;20029;-80
2022/03/09 06:58:38;;;;;;;18.10;10.88;;;0.40;99.90;;;;;;5050619;28;20029;-80
2022/03/09 07:01:04;;;;;;;14.75;9.52;;;0.50;99.90;;;;;;5035585;28;20505;-80
2022/03/09 07:03:30;;;;;;;19.05;10.45;;;0.60;99.90;;;;;;5039319;28;20893;-80
2022/03/09 07:05:56;;;;;;;19.45;10.68;;;0.60;99.90;;;;;;5040330;28;20105;-80
2022/03/09 07:08:21;;;;;;;15.70;10.88;;;0.70;99.90;;;;;;5039240;28;20052;-79
2022/03/09 07:10:47;;;;;;;16.15;11.15;;;0.80;99.90;;;;;;5039089;28;20029;-80
2022/03/09 07:13:13;;;;;;;21.05;11.73;;;0.90;99.80;;;;;;5039177;28;20033;-79
2022/03/09 07:15:38;;;;;;;18.63;12.38;;;0.90;99.70;;;;;;5050718;28;20018;-79
2022/03/09 07:18:04;;;;;;;19.92;10.88;;;0.90;99.20;;;;;;5031539;28;20083;-80
2022/03/09 07:20:29;;;;;;;17.83;11.85;;;1.00;99.30;;;;;;5035848;28;20029;-79
2022/03/09 07:22:55;;;;;;;20.15;12.13;;;1.00;99.10;;;;;;5038829;28;20132;-79
2022/03/09 07:25:21;;;;;;;15.85;11.48;;;1.10;99.20;;;;;;5037580;28;20483;-79
2022/03/09 07:27:47;;;;;;;19.08;11.80;;;1.10;99.00;;;;;;5052858;28;20402;-79
2022/03/09 07:30:13;;;;;;;17.55;11.20;;;1.20;99.00;;;;;;5036338;28;20025;-77
2022/03/09 07:32:39;;;;;;;17.67;11.77;;;1.40;98.30;;;;;;5048502;28;20025;-79
2022/03/09 07:35:05;;;;;;;20.80;12.75;;;1.30;98.10;;;;;;5051097;28;20076;-78
2022/03/09 07:37:31;;;;;;;25.35;13.43;;;1.50;97.90;;;;;;5035491;28;20056;-79
2022/03/09 07:39:56;;;;;;;15.00;10.98;;;1.40;98.30;;;;;;5040487;28;20056;-79
2022/03/09 07:42:22;;;;;;;15.25;12.27;;;1.50;98.30;;;;;;5041052;28;20032;-78
2022/03/09 07:44:47;;;;;;;17.83;11.32;;;1.60;97.90;;;;;;5046483;28;20025;-79
2022/03/09 07:47:13;;;;;;;21.50;14.38;;;1.40;98.00;;;;;;5036327;28;20085;-81
2022/03/09 07:49:38;;;;;;;14.90;11.77;;;1.60;97.90;;;;;;5053179;28;20030;-78
2022/03/09 07:52:05;;;;;;;16.42;12.43;;;1.60;97.80;;;;;;5038185;28;20029;-79
2022/03/09 07:54:31;;;;;;;22.30;12.73;;;1.70;97.60;;;;;;5047398;28;20071;-80
2022/03/09 07:56:57;;;;;;;23.00;12.95;;;1.90;97.10;;;;;;5043034;28;20030;-80
2022/03/09 07:59:23;;;;;;;20.27;13.15;;;1.90;97.30;;;;;;5037264;28;20033;-81
2022/03/09 08:01:53;;;;;;;19.95;13.05;;;2.20;96.70;;;;;;5038621;28;20029;-80
2022/03/09 08:04:22;;;;;;;28.23;13.50;;;2.20;96.40;;;;;;5037070;28;20029;-80
2022/03/09 08:06:49;;;;;;;22.50;12.75;;;2.50;95.90;;;;;;5047473;28;20029;-79
2022/03/09 08:09:15;;;;;;;20.25;11.98;;;2.50;95.50;;;;;;5035441;28;20022;-78
2022/03/09 08:11:41;;;;;;;21.55;12.88;;;2.70;95.30;;;;;;5035327;28;20033;-79
2022/03/09 08:14:06;;;;;;;19.63;12.15;;;2.70;94.90;;;;;;5037323;28;20053;-79
2022/03/09 08:16:32;;;;;;;16.63;12.32;;;2.70;95.20;;;;;;5038303;28;20028;-78
2022/03/09 08:18:57;;;;;;;19.92;13.43;;;2.90;95.00;;;;;;5029451;28;20029;-81
2022/03/09 08:21:23;;;;;;;21.70;13.27;;;3.10;94.40;;;;;;5036728;28;20505;-79
2022/03/09 08:23:48;;;;;;;18.38;12.32;;;3.00;94.70;;;;;;5055561;28;20057;-80
2022/03/09 08:26:15;;;;;;;25.58;12.07;;;3.10;94.80;;;;;;5034014;28;20116;-79
2022/03/09 08:28:40;;;;;;;16.20;12.18;;;3.40;94.70;;;;;;5055432;28;20029;-79
2022/03/09 08:31:06;;;;;;;17.88;12.00;;;3.60;93.40;;;;;;5022874;28;20022;-80
2022/03/09 08:33:31;;;;;;;18.77;11.85;;;3.50;93.50;;;;;;5038646;28;20099;-81
2022/03/09 08:35:57;;;;;;;21.70;12.18;;;3.40;93.80;;;;;;5038841;28;20033;-79
2022/03/09 08:38:22;;;;;;;14.52;12.40;;;3.60;93.80;;;;;;5042179;28;20072;-80
2022/03/09 08:40:48;;;;;;;16.48;12.15;;;3.90;93.50;;;;;;5041954;28;20112;-79
2022/03/09 08:43:14;;;;;;;18.30;11.32;;;4.20;93.00;;;;;;5035027;28;20088;-80
2022/03/09 08:45:39;;;;;;;13.10;10.88;;;4.30;92.30;;;;;;5051428;28;20021;-81
2022/03/09 08:48:05;;;;;;;15.57;10.60;;;4.20;92.00;;;;;;5042044;28;20108;-81
2022/03/09 08:50:31;;;;;;;16.77;11.05;;;4.30;91.90;;;;;;5054413;28;20018;-81
2022/03/09 08:52:57;;;;;;;14.40;11.25;;;4.50;91.30;;;;;;5031014;28;20043;-79
2022/03/09 08:55:22;;;;;;;20.00;11.45;;;4.80;91.40;;;;;;5047138;28;20021;-80
2022/03/09 08:57:48;;;;;;;16.63;10.52;;;4.90;90.90;;;;;;5043191;28;20141;-80
2022/03/09 09:00:14;;;;;;;16.65;10.60;;;4.80;90.10;;;;;;5042725;28;20558;-79
2022/03/09 09:02:39;;;;;;;13.63;9.85;;;4.90;90.40;;;;;;5041966;28;20029;-81
2022/03/09 09:05:06;;;;;;;13.27;10.38;;;4.90;89.50;;;;;;5033761;28;20026;-81
2022/03/09 09:07:31;;;;;;;15.18;9.77;;;5.20;88.90;;;;;;5053466;28;20119;-80
2022/03/09 09:09:57;;;;;;;14.63;10.13;;;5.40;88.30;;;;;;5032872;28;20029;-80
2022/03/09 09:12:22;;;;;;;17.42;10.85;;;5.70;86.40;;;;;;5041381;28;20044;-82
2022/03/09 09:14:48;;;;;;;12.90;9.25;;;5.70;86.00;;;;;;5039151;28;20033;-80
2022/03/09 09:17:15;;;;;;;18.25;11.63;;;5.70;85.90;;;;;;5043748;28;20021;-81
2022/03/09 09:19:40;;;;;;;22.83;10.57;;;5.70;84.90;;;;;;5033301;28;20038;-79
2022/03/09 09:22:06;;;;;;;16.15;10.55;;;5.80;84.40;;;;;;5038166;28;20060;-78
2022/03/09 09:24:32;;;;;;;16.65;10.00;;;6.00;83.20;;;;;;5032708;28;20482;-77
2022/03/09 09:26:57;;;;;;;10.80;8.88;;;6.20;83.00;;;;;;5035845;28;20425;-79
2022/03/09 09:29:23;;;;;;;14.90;9.00;;;6.50;81.20;;;;;;5030821;28;20030;-79
2022/03/09 09:31:48;;;;;;;12.80;9.02;;;6.60;80.10;;;;;;5028192;28;20105;-78
2022/03/09 09:34:17;;;;;;;13.23;9.77;;;6.60;80.40;;;;;;5036269;28;20079;-79
2022/03/09 09:36:46;;;;;;;14.75;9.48;;;6.90;78.90;;;;;;5034699;28;20407;-78
2022/03/09 09:39:15;;;;;;;11.80;8.63;;;7.10;78.50;;;;;;5034835;28;20025;-80
2022/03/09 09:41:46;;;;;;;10.82;8.98;;;7.10;77.80;;;;;;5050474;28;20425;-79
2022/03/09 09:44:13;;;;;;;13.82;9.20;;;7.30;77.30;;;;;;5034123;28;20487;-79
2022/03/09 09:46:40;;;;;;;10.63;9.13;;;7.30;76.50;;;;;;5052217;28;20041;-79
2022/03/09 09:49:12;;;;;;;13.65;10.07;;;7.30;76.50;;;;;;5026857;28;20032;-81
2022/03/09 09:51:39;;;;;;;18.02;10.35;;;7.30;78.60;;;;;;5045144;28;20056;-78
2022/03/09 09:54:05;;;;;;;18.52;11.77;;;7.30;78.90;;;;;;5026030;28;20116;-79
2022/03/09 09:56:34;;;;;;;13.93;10.82;;;7.60;77.60;;;;;;5034631;28;20096;-77
2022/03/09 09:59:00;;;;;;;18.85;10.48;;;7.70;77.30;;;;;;5034300;28;20563;-78
2022/03/09 10:01:26;;;;;;;17.35;11.00;;;7.80;77.20;;;;;;5032113;28;20030;-80
2022/03/09 10:03:52;;;;;;;13.65;10.75;;;7.90;76.00;;;;;;5029614;28;20018;-77
2022/03/09 10:06:17;;;;;;;14.57;10.15;;;7.90;76.20;;;;;;5036296;28;20167;-81
2022/03/09 10:09:06;;;;;;;12.05;9.85;;;7.90;76.50;;;;;;5035408;28;20033;-79
2022/03/09 10:11:49;;;;;;;14.20;10.48;;;7.90;75.80;;;;;;5045551;28;20048;-78
2022/03/09 10:14:16;;;;;;;15.07;10.75;;;7.90;75.60;;;;;;5038001;28;20159;-78
2022/03/09 10:17:05;;;;;;;20.50;10.50;;;8.10;75.70;;;;;;5029977;28;20428;-79
2022/03/09 10:19:37;;;;;;;15.90;10.85;;;8.20;74.20;;;;;;5036043;28;20030;-79
2022/03/09 10:22:21;;;;;;;20.83;10.93;;;8.40;74.10;;;;;;5037151;28;20104;-79
2022/03/09 10:24:47;;;;;;;10.98;9.63;;;8.50;73.70;;;;;;5036820;28;20040;-80
2022/03/09 10:27:12;;;;;;;24.25;11.70;;;8.50;73.80;;;;;;5038129;28;20029;-79
2022/03/09 10:29:38;;;;;;;16.10;10.57;;;8.30;73.70;;;;;;5053452;28;20045;-78
2022/03/09 10:32:04;;;;;;;14.93;11.40;;;8.30;73.60;;;;;;5031805;28;20026;-82
2022/03/09 10:34:29;;;;;;;15.65;10.88;;;8.40;73.00;;;;;;5036348;28;20010;-79
2022/03/09 10:37:01;;;;;;;17.23;10.30;;;8.40;73.20;;;;;;5027778;28;20026;-78
2022/03/09 10:39:36;;;;;;;18.85;10.02;;;8.40;72.80;;;;;;5036827;28;20036;-79
2022/03/09 10:42:03;;;;;;;17.15;10.35;;;8.50;72.50;;;;;;5047085;28;20025;-80
2022/03/09 10:44:50;;;;;;;12.90;9.50;;;8.70;72.30;;;;;;5038866;28;20021;-80
2022/03/09 10:47:33;;;;;;;15.93;11.93;;;9.00;70.90;;;;;;5052620;28;20029;-80
2022/03/09 10:50:14;;;;;;;15.10;10.25;;;9.20;69.80;;;;;;5038362;28;20097;-80
2022/03/09 10:52:46;;;;;;;12.68;10.43;;;9.20;69.80;;;;;;5038665;28;20017;-80
2022/03/09 10:55:25;;;;;;;17.67;10.38;;;9.20;69.10;;;;;;5034652;28;20521;-78
2022/03/09 10:57:52;;;;;;;15.40;10.95;;;9.20;69.00;;;;;;5038592;28;20528;-79
2022/03/09 11:00:39;;;;;;;15.68;10.30;;;9.40;68.40;;;;;;5035285;28;20025;-75
2022/03/09 11:03:13;;;;;;;18.23;10.68;;;9.40;67.10;;;;;;5034482;28;20025;-75
2022/03/09 11:05:50;;;;;;;15.20;10.82;;;9.50;67.30;;;;;;5027265;28;20026;-75
2022/03/09 11:08:17;;;;;;;16.80;10.70;;;9.60;66.30;;;;;;5033890;28;20032;-76
2022/03/09 11:10:45;;;;;;;13.85;11.50;;;9.60;66.00;;;;;;5049462;28;20041;-74
2022/03/09 11:13:11;;;;;;;20.85;11.48;;;9.60;66.40;;;;;;5033910;28;20044;-75
2022/03/09 11:15:38;;;;;;;18.40;12.13;;;9.70;65.50;;;;;;5034462;28;20021;-75
2022/03/09 11:18:05;;;;;;;19.08;12.60;;;9.90;65.40;;;;;;5048475;28;20029;-76
2022/03/09 11:20:30;;;;;;;17.13;13.32;;;10.10;63.30;;;;;;5026684;28;20033;-76
2022/03/09 11:22:56;;;;;;;22.08;12.05;;;10.20;62.20;;;;;;5033249;28;20037;-74
2022/03/09 11:25:23;;;;;;;17.60;12.90;;;10.30;62.10;;;;;;5033292;28;20033;-74
2022/03/09 11:27:53;;;;;;;19.02;12.25;;;10.10;61.80;;;;;;5028771;28;20022;-75
2022/03/09 11:30:30;;;;;;;15.63;11.32;;;10.00;61.80;;;;;;5029775;28;20021;-75
2022/03/09 11:32:57;;;;;;;14.73;11.88;;;10.20;61.80;;;;;;5030856;28;20379;-75
2022/03/09 11:35:30;;;;;;;23.17;12.32;;;10.60;60.10;;;;;;5032678;28;20028;-76
2022/03/09 11:37:55;;;;;;;15.85;11.80;;;10.50;60.60;;;;;;5026539;28;20088;-74
2022/03/09 11:40:21;;;;;;;15.40;11.63;;;10.70;60.10;;;;;;5026207;28;20034;-75
2022/03/09 11:42:46;;;;;;;17.63;11.38;;;10.90;59.10;;;;;;5027965;28;20029;-76
2022/03/09 11:45:20;;;;;;;16.35;11.88;;;10.70;59.50;;;;;;5028205;28;20044;-75
2022/03/09 11:48:20;;;;;;;13.38;11.18;;;10.90;58.50;;;;;;5032670;28;20033;-76
2022/03/09 11:50:46;;;;;;;14.38;11.52;;;11.00;58.40;;;;;;4994833;28;20026;-74
2022/03/09 11:53:13;;;;;;;15.30;11.93;;;10.90;60.80;;;;;;5030793;28;20025;-77
2022/03/09 11:55:38;;;;;;;16.85;12.32;;;10.80;58.00;;;;;;5040968;28;20021;-75
2022/03/09 11:58:08;;;;;;;18.45;12.38;;;10.80;57.10;;;;;;5029911;28;20170;-75
2022/03/09 12:00:39;;;;;;;15.15;12.20;;;10.90;56.80;;;;;;5028585;28;20489;-76
2022/03/09 12:03:04;;;;;;;18.17;13.02;;;11.20;57.00;;;;;;5034091;28;20494;-75
2022/03/09 12:05:39;;;;;;;15.23;11.88;;;11.50;57.60;;;;;;5032942;28;20116;-75
2022/03/09 12:08:09;;;;;;;16.92;11.90;;;11.60;57.80;;;;;;5037094;28;20031;-77
2022/03/09 12:10:41;;;;;;;19.17;12.00;;;11.40;57.70;;;;;;5026905;28;20433;-77
2022/03/09 12:13:17;;;;;;;16.15;12.68;;;11.00;58.40;;;;;;5031742;28;20095;-75
2022/03/09 12:16:04;;;;;;;16.52;12.30;;;11.30;57.60;;;;;;5031120;28;20195;-75
2022/03/09 12:18:44;;;;;;;20.35;12.93;;;11.20;57.40;;;;;;5031871;28;20017;-75
2022/03/09 12:21:13;;;;;;;15.07;12.77;;;10.90;58.20;;;;;;5031994;28;20037;-75
2022/03/09 12:24:19;;;;;;;13.52;11.88;;;10.90;58.30;;;;;;5045089;28;20058;-75
2022/03/09 12:26:54;;;;;;;16.63;12.93;;;10.90;58.50;;;;;;5030562;28;20041;-74
2022/03/09 12:29:23;;;;;;;17.27;12.25;;;11.10;58.60;;;;;;5031006;28;20037;-74
2022/03/09 12:32:01;;;;;;;14.98;12.27;;;11.30;56.60;;;;;;5027663;28;20272;-74
2022/03/09 12:34:28;;;;;;;13.73;12.15;;;11.10;56.70;;;;;;5032152;28;20044;-73